createdAt,value
2022-08-04T00:00:04.342Z,3.50
2022-08-04T00:01:29.366Z,3.80
2022-08-04T00:02:51.291Z,2.60
2022-08-04T00:04:42.434Z,2.92
2022-08-04T00:06:02.167Z,2.70
2022-08-04T00:07:03.216Z,2.80
2022-08-04T00:08:07.990Z,2.67
2022-08-04T00:09:13.856Z,3.03
2022-08-04T00:10:11.173Z,2.97
2022-08-04T00:11:15.486Z,2.95
2022-08-04T00:12:16.052Z,2.92
2022-08-04T00:13:13.137Z,3.00
2022-08-04T00:14:17.022Z,2.85
2022-08-04T00:15:16.680Z,2.65
2022-08-04T00:16:14.693Z,3.15
2022-08-04T00:17:11.531Z,3.88
2022-08-04T00:18:09.966Z,3.25
2022-08-04T00:19:17.965Z,3.13
2022-08-04T00:20:18.818Z,3.60
2022-08-04T00:21:19.014Z,3.50
2022-08-04T00:22:19.695Z,3.10
2022-08-04T00:23:17.810Z,3.53
2022-08-04T00:24:16.478Z,3.22
2022-08-04T00:25:13.644Z,4.00
2022-08-04T00:26:10.528Z,3.22
2022-08-04T00:27:08.951Z,3.80
2022-08-04T00:28:05.855Z,3.47
2022-08-04T00:29:02.796Z,3.38
2022-08-04T00:29:59.779Z,3.40
2022-08-04T00:30:56.686Z,2.80
2022-08-04T00:31:57.286Z,2.67
2022-08-04T00:32:56.776Z,2.80
2022-08-04T00:33:54.333Z,4.10
2022-08-04T00:34:51.710Z,3.50
2022-08-04T00:35:50.852Z,3.88
2022-08-04T00:36:47.590Z,3.97
2022-08-04T00:37:45.541Z,3.60
2022-08-04T00:38:43.771Z,3.50
2022-08-04T00:39:42.243Z,3.38
2022-08-04T00:41:15.218Z,3.65
2022-08-04T00:42:29.999Z,3.47
2022-08-04T00:44:13.368Z,4.25
2022-08-04T00:46:15.309Z,3.80
2022-08-04T00:47:28.738Z,3.55
2022-08-04T00:48:38.346Z,4.63
2022-08-04T00:50:08.020Z,4.20
2022-08-04T00:51:10.689Z,4.60
2022-08-04T00:52:33.846Z,4.57
2022-08-04T00:53:54.532Z,4.50
2022-08-04T00:55:06.863Z,3.80
2022-08-04T00:56:15.187Z,4.90
2022-08-04T00:57:34.548Z,4.22
2022-08-04T00:58:42.843Z,4.50
2022-08-04T00:59:54.532Z,4.35
2022-08-04T01:01:04.001Z,4.20
2022-08-04T01:02:13.425Z,3.70
2022-08-04T01:03:20.963Z,3.58
2022-08-04T01:04:35.275Z,3.50
2022-08-04T01:06:09.251Z,3.67
2022-08-04T01:07:50.488Z,3.20
2022-08-04T01:08:54.592Z,3.03
2022-08-04T01:10:11.297Z,3.50
2022-08-04T01:11:20.329Z,3.60
2022-08-04T01:12:35.484Z,2.40
2022-08-04T01:13:50.481Z,3.20
2022-08-04T01:15:02.230Z,3.53
2022-08-04T01:16:11.420Z,3.15
2022-08-04T01:17:26.195Z,3.10
2022-08-04T01:18:34.497Z,3.90
2022-08-04T01:20:01.282Z,3.20
2022-08-04T01:21:15.692Z,3.10
2022-08-04T01:22:34.089Z,3.53
2022-08-04T01:23:58.547Z,3.70
2022-08-04T01:25:26.346Z,3.30
2022-08-04T01:26:57.389Z,2.63
2022-08-04T01:28:30.573Z,3.33
2022-08-04T01:29:47.076Z,2.90
2022-08-04T01:30:49.213Z,2.60
2022-08-04T01:32:04.209Z,3.35
2022-08-04T01:33:09.107Z,2.90
2022-08-04T01:34:10.064Z,2.85
2022-08-04T01:35:47.443Z,3.40
2022-08-04T01:37:03.652Z,3.05
2022-08-04T01:38:24.594Z,2.80
2022-08-04T01:39:39.793Z,2.75
2022-08-04T01:40:38.522Z,2.80
2022-08-04T01:41:35.435Z,3.63
2022-08-04T01:42:34.607Z,3.42
2022-08-04T01:43:33.567Z,3.17
2022-08-04T01:44:31.508Z,3.28
2022-08-04T01:45:29.888Z,3.25
2022-08-04T01:46:28.101Z,3.13
2022-08-04T01:47:29.851Z,3.15
2022-08-04T01:48:28.365Z,3.35
2022-08-04T01:49:30.135Z,3.30
2022-08-04T01:50:37.464Z,3.17
2022-08-04T01:51:40.232Z,3.30
2022-08-04T01:52:39.169Z,3.13
2022-08-04T01:53:39.082Z,3.50
2022-08-04T01:54:38.117Z,3.47
2022-08-04T01:55:54.881Z,4.22
2022-08-04T01:56:53.476Z,3.58
2022-08-04T01:57:52.761Z,4.10
2022-08-04T01:58:49.439Z,4.13
2022-08-04T01:59:47.711Z,3.88
2022-08-04T02:01:08.562Z,4.10
2022-08-04T02:02:06.572Z,4.20
2022-08-04T02:03:03.345Z,3.92
2022-08-04T02:04:20.284Z,3.33
2022-08-04T02:05:19.252Z,3.20
2022-08-04T02:06:34.336Z,3.83
2022-08-04T02:08:09.061Z,3.92
2022-08-04T02:09:26.554Z,3.63
2022-08-04T02:10:33.418Z,3.30
2022-08-04T02:11:30.540Z,3.33
2022-08-04T02:13:01.099Z,4.38
2022-08-04T02:14:45.644Z,4.00
2022-08-04T02:15:48.122Z,3.53
2022-08-04T02:17:57.251Z,3.35
2022-08-04T02:19:04.662Z,3.53
2022-08-04T02:20:08.807Z,3.90
2022-08-04T02:21:05.587Z,4.00
2022-08-04T02:22:17.921Z,3.50
2022-08-04T02:23:19.887Z,4.17
2022-08-04T02:24:22.412Z,4.05
2022-08-04T02:26:28.164Z,4.20
2022-08-04T02:27:59.199Z,4.10
2022-08-04T02:29:17.520Z,3.45
2022-08-04T02:30:14.281Z,4.30
2022-08-04T02:31:28.672Z,4.47
2022-08-04T02:32:33.616Z,4.13
2022-08-04T02:33:43.388Z,3.83
2022-08-04T02:34:40.082Z,3.90
2022-08-04T02:35:39.514Z,3.80
2022-08-04T02:36:43.445Z,3.00
2022-08-04T02:37:47.709Z,3.65
2022-08-04T02:38:50.260Z,3.25
2022-08-04T02:39:50.327Z,3.00
2022-08-04T02:40:47.463Z,4.05
2022-08-04T02:41:45.624Z,3.80
2022-08-04T02:42:43.620Z,4.00
2022-08-04T02:43:52.152Z,3.15
2022-08-04T02:44:51.456Z,4.13
2022-08-04T02:45:51.768Z,4.28
2022-08-04T02:46:52.946Z,4.00
2022-08-04T02:48:08.083Z,3.60
2022-08-04T02:49:10.154Z,3.80
2022-08-04T02:50:08.797Z,3.17
2022-08-04T02:51:07.073Z,3.20
2022-08-04T02:52:04.720Z,2.92
2022-08-04T02:53:03.760Z,3.38
2022-08-04T02:54:07.822Z,3.88
2022-08-04T02:55:07.041Z,3.50
2022-08-04T02:56:07.317Z,2.88
2022-08-04T02:57:08.574Z,3.53
2022-08-04T02:58:06.084Z,3.45
2022-08-04T02:59:11.358Z,3.30
2022-08-04T03:00:14.610Z,4.28
2022-08-04T03:01:11.266Z,4.63
2022-08-04T03:02:07.918Z,4.97
2022-08-04T03:03:31.131Z,4.80
2022-08-04T03:04:46.266Z,4.70
2022-08-04T03:06:13.443Z,4.28
2022-08-04T03:07:51.257Z,4.47
2022-08-04T03:09:15.255Z,4.40
2022-08-04T03:11:23.333Z,3.85
2022-08-04T03:12:22.924Z,4.00
2022-08-04T03:13:37.693Z,3.92
2022-08-04T03:14:52.679Z,4.18
2022-08-04T03:16:12.241Z,3.38
2022-08-04T03:17:21.033Z,3.63
2022-08-04T03:18:36.091Z,3.80
2022-08-04T03:19:51.159Z,4.05
2022-08-04T03:20:56.635Z,4.50
2022-08-04T03:21:56.118Z,4.03
2022-08-04T03:23:12.953Z,4.10
2022-08-04T03:24:15.888Z,3.70
2022-08-04T03:25:36.382Z,4.00
2022-08-04T03:27:13.009Z,3.80
2022-08-04T03:29:01.093Z,3.45
2022-08-04T03:30:05.726Z,3.47
2022-08-04T03:31:08.302Z,4.65
2022-08-04T03:33:29.592Z,2.92
2022-08-04T03:34:54.049Z,3.85
2022-08-04T03:36:09.182Z,3.70
2022-08-04T03:37:54.787Z,3.45
2022-08-04T03:39:01.621Z,3.67
2022-08-04T03:40:30.656Z,4.30
2022-08-04T03:41:55.089Z,4.53
2022-08-04T03:42:57.256Z,4.10
2022-08-04T03:44:24.754Z,4.32
2022-08-04T03:45:24.518Z,3.53
2022-08-04T03:46:33.171Z,3.63
2022-08-04T03:47:32.713Z,4.55
2022-08-04T03:48:54.286Z,4.70
2022-08-04T03:50:02.243Z,4.80
2022-08-04T03:51:57.383Z,5.30
2022-08-04T03:53:45.047Z,3.78
2022-08-04T03:55:13.827Z,3.78
2022-08-04T03:56:37.718Z,4.30
2022-08-04T03:57:43.214Z,4.15
2022-08-04T03:59:10.075Z,4.75
2022-08-04T04:00:14.898Z,5.07
2022-08-04T04:02:01.190Z,5.10
2022-08-04T04:03:34.890Z,5.32
2022-08-04T04:04:50.088Z,4.53
2022-08-04T04:06:04.949Z,4.10
2022-08-04T04:07:34.131Z,4.05
2022-08-04T04:08:35.965Z,3.67
2022-08-04T04:10:01.165Z,4.03
2022-08-04T04:11:55.364Z,3.92
2022-08-04T04:13:24.143Z,3.60
2022-08-04T04:14:37.582Z,4.10
2022-08-04T04:16:11.033Z,4.00
2022-08-04T04:17:33.715Z,4.13
2022-08-04T04:19:03.897Z,3.95
2022-08-04T04:20:14.183Z,3.40
2022-08-04T04:21:27.241Z,3.75
2022-08-04T04:22:26.730Z,4.10
2022-08-04T04:24:03.289Z,4.22
2022-08-04T04:25:08.908Z,3.97
2022-08-04T04:26:26.655Z,4.50
2022-08-04T04:27:40.668Z,4.10
2022-08-04T04:28:47.097Z,4.50
2022-08-04T04:30:14.432Z,3.97
2022-08-04T04:31:20.199Z,3.90
2022-08-04T04:32:38.150Z,4.20
2022-08-04T04:33:58.914Z,4.40
2022-08-04T04:35:20.140Z,4.20
2022-08-04T04:36:35.868Z,4.07
2022-08-04T04:37:48.821Z,4.70
2022-08-04T04:39:13.715Z,4.25
2022-08-04T04:40:18.989Z,3.88
2022-08-04T04:41:37.309Z,4.28
2022-08-04T04:42:37.528Z,3.95
2022-08-04T04:43:52.750Z,4.28
2022-08-04T04:44:58.694Z,4.30
2022-08-04T04:46:26.986Z,4.15
2022-08-04T04:48:07.530Z,4.40
2022-08-04T04:49:33.212Z,4.35
2022-08-04T04:50:48.580Z,3.97
2022-08-04T04:51:51.975Z,4.03
2022-08-04T04:52:58.226Z,3.72
2022-08-04T04:54:19.942Z,4.00
2022-08-04T04:55:26.853Z,3.83
2022-08-04T04:56:47.121Z,3.90
2022-08-04T04:57:51.918Z,3.80
2022-08-04T04:58:55.162Z,4.22
2022-08-04T05:00:08.549Z,3.83
2022-08-04T05:01:11.131Z,3.92
2022-08-04T05:02:35.331Z,3.65
2022-08-04T05:04:08.857Z,3.30
2022-08-04T05:05:27.010Z,3.50
2022-08-04T05:06:32.413Z,3.72
2022-08-04T05:07:38.445Z,3.60
2022-08-04T05:09:07.428Z,3.88
2022-08-04T05:10:18.616Z,3.35
2022-08-04T05:11:54.355Z,3.50
2022-08-04T05:14:37.803Z,3.53
2022-08-04T05:14:39.068Z,3.92
2022-08-04T05:15:43.370Z,3.53
2022-08-04T05:17:05.175Z,3.53
2022-08-04T05:18:06.833Z,3.72
2022-08-04T05:19:21.878Z,3.83
2022-08-04T05:20:40.733Z,3.55
2022-08-04T05:21:45.071Z,2.85
2022-08-04T05:22:56.910Z,3.17
2022-08-04T05:24:00.495Z,3.60
2022-08-04T05:25:25.610Z,3.45
2022-08-04T05:26:30.076Z,3.08
2022-08-04T05:27:40.118Z,3.72
2022-08-04T05:28:43.211Z,2.97
2022-08-04T05:29:50.182Z,3.50
2022-08-04T05:30:53.713Z,3.13
2022-08-04T05:31:53.898Z,3.45
2022-08-04T05:32:59.140Z,3.20
2022-08-04T05:34:13.977Z,3.40
2022-08-04T05:35:14.779Z,3.40
2022-08-04T05:36:41.508Z,3.50
2022-08-04T05:37:41.100Z,3.35
2022-08-04T05:38:42.703Z,2.90
2022-08-04T05:39:47.167Z,3.30
2022-08-04T05:40:44.972Z,2.65
2022-08-04T05:41:46.279Z,2.92
2022-08-04T05:42:44.991Z,2.70
2022-08-04T05:43:44.192Z,3.30
2022-08-04T05:44:46.342Z,2.92
2022-08-04T05:45:48.495Z,2.72
2022-08-04T05:46:54.219Z,2.80
2022-08-04T05:47:53.785Z,2.75
2022-08-04T05:48:51.760Z,3.08
2022-08-04T05:50:01.392Z,2.83
2022-08-04T05:51:01.470Z,2.67
2022-08-04T05:52:02.728Z,2.85
2022-08-04T05:53:01.599Z,2.60
2022-08-04T05:53:58.972Z,2.70
2022-08-04T05:54:56.585Z,3.10
2022-08-04T05:55:58.874Z,2.90
2022-08-04T05:56:58.249Z,3.00
2022-08-04T05:57:56.987Z,2.65
2022-08-04T05:58:55.260Z,3.22
2022-08-04T05:59:55.217Z,2.78
2022-08-04T06:00:54.272Z,3.47
2022-08-04T06:01:55.928Z,3.13
2022-08-04T06:02:56.879Z,3.13
2022-08-04T06:03:56.824Z,2.97
2022-08-04T06:04:54.146Z,3.00
2022-08-04T06:05:52.214Z,3.03
2022-08-04T06:06:49.126Z,2.60
2022-08-04T06:08:04.510Z,3.00
2022-08-04T06:09:03.604Z,2.45
2022-08-04T06:10:00.958Z,3.10
2022-08-04T06:11:02.190Z,2.63
2022-08-04T06:12:07.035Z,2.75
2022-08-04T06:13:08.752Z,2.20
2022-08-04T06:14:09.208Z,2.65
2022-08-04T06:15:09.359Z,2.78
2022-08-04T06:16:17.880Z,2.65
2022-08-04T06:19:57.460Z,2.90
2022-08-04T06:20:02.378Z,2.80
2022-08-04T06:20:19.244Z,2.83
2022-08-04T06:21:25.039Z,2.60
2022-08-04T06:22:24.293Z,2.60
2022-08-04T06:23:23.680Z,2.38
2022-08-04T06:24:24.855Z,2.80
2022-08-04T06:25:26.394Z,3.05
2022-08-04T06:26:25.025Z,2.75
2022-08-04T06:27:24.345Z,2.50
2022-08-04T06:28:22.914Z,2.28
2022-08-04T06:29:36.681Z,2.38
2022-08-04T06:30:34.481Z,2.58
2022-08-04T06:32:26.884Z,2.50
2022-08-04T06:33:24.837Z,2.65
2022-08-04T06:34:21.494Z,2.95
2022-08-04T06:35:19.719Z,2.80
2022-08-04T06:36:17.034Z,2.33
2022-08-04T06:37:24.120Z,2.40
2022-08-04T06:38:32.900Z,2.40
2022-08-04T06:39:30.576Z,2.53
2022-08-04T06:40:30.584Z,2.30
2022-08-04T06:41:30.391Z,2.63
2022-08-04T06:42:28.325Z,2.72
2022-08-04T06:43:26.620Z,2.13
2022-08-04T06:44:28.328Z,2.47
2022-08-04T06:45:25.423Z,2.60
2022-08-04T06:46:22.669Z,2.55
2022-08-04T06:47:21.586Z,2.50
2022-08-04T06:48:20.099Z,2.60
2022-08-04T06:49:19.596Z,2.28
2022-08-04T06:51:27.411Z,2.58
2022-08-04T06:51:48.987Z,2.33
2022-08-04T06:52:46.986Z,2.28
2022-08-04T06:53:43.724Z,2.65
2022-08-04T06:54:40.403Z,2.40
2022-08-04T06:55:38.407Z,2.42
2022-08-04T06:56:39.093Z,3.03
2022-08-04T06:57:37.250Z,2.45
2022-08-04T06:58:34.278Z,2.83
2022-08-04T06:59:31.350Z,2.70
2022-08-04T07:00:29.860Z,2.70
2022-08-04T07:01:28.133Z,3.15
2022-08-04T07:02:27.863Z,3.13
2022-08-04T07:03:24.899Z,3.05
2022-08-04T07:04:21.645Z,3.20
2022-08-04T07:05:19.804Z,3.30
2022-08-04T07:06:16.696Z,3.15
2022-08-04T07:07:13.882Z,3.20
2022-08-04T07:08:11.906Z,3.28
2022-08-04T07:09:08.836Z,3.22
2022-08-04T07:10:06.634Z,3.50
2022-08-04T07:11:05.620Z,3.30
2022-08-04T07:12:03.555Z,3.00
2022-08-04T07:13:01.671Z,2.90
2022-08-04T07:14:00.135Z,2.40
2022-08-04T07:14:57.758Z,2.78
2022-08-04T07:15:56.046Z,2.95
2022-08-04T07:16:54.338Z,3.40
2022-08-04T07:17:52.590Z,3.05
2022-08-04T07:18:49.348Z,3.35
2022-08-04T07:19:46.014Z,2.83
2022-08-04T07:20:46.670Z,3.58
2022-08-04T07:22:17.587Z,3.28
2022-08-04T07:23:01.800Z,3.60
2022-08-04T07:23:58.605Z,3.47
2022-08-04T07:24:57.195Z,3.83
2022-08-04T07:26:11.188Z,3.50
2022-08-04T07:27:09.963Z,3.20
2022-08-04T07:28:07.144Z,3.38
2022-08-04T07:29:04.330Z,3.33
2022-08-04T07:30:01.570Z,3.20
2022-08-04T07:31:02.826Z,3.35
2022-08-04T07:32:00.157Z,3.35
2022-08-04T07:32:57.639Z,2.90
2022-08-04T07:34:17.082Z,3.08
2022-08-04T07:36:03.974Z,3.50
2022-08-04T07:36:36.041Z,3.10
2022-08-04T07:37:40.083Z,3.03
2022-08-04T07:38:48.089Z,3.10
2022-08-04T07:39:48.749Z,3.20
2022-08-04T07:40:46.826Z,3.05
2022-08-04T07:41:46.179Z,2.88
2022-08-04T07:42:46.307Z,3.20
2022-08-04T07:43:43.022Z,3.28
2022-08-04T07:44:40.082Z,3.05
2022-08-04T07:45:37.480Z,3.35
2022-08-04T07:46:34.437Z,3.15
2022-08-04T07:47:31.102Z,2.70
2022-08-04T07:48:27.956Z,2.72
2022-08-04T07:49:55.975Z,2.80
2022-08-04T07:50:45.231Z,2.63
2022-08-04T07:51:41.983Z,2.65
2022-08-04T07:52:40.054Z,2.63
2022-08-04T07:53:54.064Z,2.40
2022-08-04T07:54:53.796Z,3.25
2022-08-04T07:55:50.574Z,2.67
2022-08-04T07:56:51.877Z,2.58
2022-08-04T07:57:48.719Z,2.45
2022-08-04T07:58:45.445Z,2.33
2022-08-04T07:59:45.892Z,2.55
2022-08-04T08:00:47.346Z,2.90
2022-08-04T08:01:44.419Z,3.10
2022-08-04T08:02:48.592Z,2.45
2022-08-04T08:03:46.671Z,2.20
2022-08-04T08:04:44.082Z,2.40
2022-08-04T08:06:18.186Z,3.10
2022-08-04T08:06:58.873Z,2.67
2022-08-04T08:07:57.399Z,2.22
2022-08-04T08:08:54.163Z,2.40
2022-08-04T08:09:51.014Z,2.38
2022-08-04T08:10:48.572Z,2.42
2022-08-04T08:12:38.441Z,2.53
2022-08-04T08:13:04.164Z,2.35
2022-08-04T08:14:01.860Z,2.40
2022-08-04T08:14:59.682Z,2.38
2022-08-04T08:15:57.503Z,2.50
2022-08-04T08:16:54.528Z,2.25
2022-08-04T08:17:58.368Z,2.60
2022-08-04T08:18:56.902Z,2.63
2022-08-04T08:19:53.535Z,2.50
2022-08-04T08:20:52.619Z,2.60
2022-08-04T08:21:59.050Z,2.30
2022-08-04T08:22:57.833Z,2.25
2022-08-04T08:23:55.700Z,2.70
2022-08-04T08:24:52.582Z,2.40
2022-08-04T08:25:49.708Z,2.42
2022-08-04T08:26:47.159Z,2.50
2022-08-04T08:27:55.904Z,2.25
2022-08-04T08:28:53.609Z,2.53
2022-08-04T08:29:50.550Z,2.38
2022-08-04T08:30:52.582Z,2.88
2022-08-04T08:32:56.429Z,2.42
2022-08-04T08:33:53.675Z,2.60
2022-08-04T08:34:50.627Z,2.25
2022-08-04T08:36:03.720Z,2.65
2022-08-04T08:37:07.818Z,2.60
2022-08-04T08:38:07.095Z,2.35
2022-08-04T08:39:10.972Z,2.20
2022-08-04T08:40:41.790Z,2.80
2022-08-04T08:42:01.484Z,2.22
2022-08-04T08:44:06.598Z,2.53
2022-08-04T08:44:48.834Z,2.90
2022-08-04T08:46:12.809Z,2.42
2022-08-04T08:48:05.486Z,2.40
2022-08-04T08:50:00.805Z,2.13
2022-08-04T08:53:01.470Z,2.17
2022-08-04T08:54:24.162Z,2.00
2022-08-04T08:55:24.076Z,1.98
2022-08-04T08:56:48.213Z,2.20
2022-08-04T08:58:00.308Z,2.15
2022-08-04T08:59:07.459Z,2.42
2022-08-04T09:00:18.580Z,2.00
2022-08-04T09:01:27.356Z,1.92
2022-08-04T09:02:42.739Z,2.00
2022-08-04T09:03:50.493Z,1.80
2022-08-04T09:05:11.523Z,2.15
2022-08-04T09:06:29.562Z,1.85
2022-08-04T09:08:01.511Z,2.05
2022-08-04T09:09:19.608Z,2.20
2022-08-04T09:10:22.058Z,2.10
2022-08-04T09:13:12.187Z,1.90
2022-08-04T09:14:19.394Z,1.90
2022-08-04T09:15:24.353Z,2.10
2022-08-04T09:16:39.065Z,1.90
2022-08-04T09:18:02.065Z,1.85
2022-08-04T09:19:38.880Z,1.98
2022-08-04T09:20:59.127Z,1.92
2022-08-04T09:22:16.304Z,1.95
2022-08-04T09:23:12.996Z,2.20
2022-08-04T09:24:47.485Z,2.20
2022-08-04T09:25:58.441Z,2.33
2022-08-04T09:27:05.572Z,2.20
2022-08-04T09:28:37.269Z,2.10
2022-08-04T09:30:06.285Z,2.03
2022-08-04T09:31:20.778Z,2.00
2022-08-04T09:32:26.444Z,2.03
2022-08-04T09:34:09.312Z,2.38
2022-08-04T09:35:40.029Z,2.20
2022-08-04T09:36:56.771Z,2.30
2022-08-04T09:38:16.920Z,2.63
2022-08-04T09:39:24.961Z,1.90
2022-08-04T09:40:52.652Z,2.50
2022-08-04T09:42:04.407Z,2.10
2022-08-04T09:43:58.857Z,2.20
2022-08-04T09:45:06.118Z,2.58
2022-08-04T09:46:15.008Z,2.33
2022-08-04T09:47:40.074Z,2.60
2022-08-04T09:48:48.595Z,2.95
2022-08-04T09:49:57.992Z,2.78
2022-08-04T09:50:59.740Z,2.85
2022-08-04T09:52:06.667Z,2.53
2022-08-04T09:53:06.458Z,2.65
2022-08-04T09:54:29.354Z,2.70
2022-08-04T09:55:54.280Z,2.45
2022-08-04T09:57:02.726Z,2.22
2022-08-04T09:58:07.374Z,2.35
2022-08-04T09:59:17.059Z,2.58
2022-08-04T10:00:17.773Z,2.22
2022-08-04T10:01:23.977Z,2.40
2022-08-04T10:02:24.470Z,2.15
2022-08-04T10:03:25.593Z,2.42
2022-08-04T10:04:25.726Z,2.65
2022-08-04T10:05:26.385Z,2.53
2022-08-04T10:06:48.447Z,2.40
2022-08-04T10:08:16.186Z,2.10
2022-08-04T10:09:52.339Z,2.08
2022-08-04T10:11:07.841Z,2.30
2022-08-04T10:12:13.685Z,2.53
2022-08-04T10:13:21.506Z,2.53
2022-08-04T10:14:55.963Z,2.10
2022-08-04T10:16:13.511Z,2.33
2022-08-04T10:17:34.833Z,2.28
2022-08-04T10:19:09.773Z,2.45
2022-08-04T10:20:33.721Z,2.38
2022-08-04T10:22:25.686Z,2.45
2022-08-04T10:23:23.773Z,2.10
2022-08-04T10:24:20.364Z,2.03
2022-08-04T10:25:37.632Z,2.35
2022-08-04T10:27:07.162Z,2.30
2022-08-04T10:28:09.235Z,2.30
2022-08-04T10:29:09.233Z,2.20
2022-08-04T10:30:12.252Z,2.50
2022-08-04T10:31:13.466Z,2.70
2022-08-04T10:32:54.158Z,2.60
2022-08-04T10:34:01.607Z,2.22
2022-08-04T10:35:16.137Z,2.10
2022-08-04T10:36:22.250Z,2.30
2022-08-04T10:37:58.955Z,2.08
2022-08-04T10:39:07.577Z,4.40
2022-08-04T10:40:40.826Z,2.38
2022-08-04T10:41:37.525Z,2.00
2022-08-04T10:42:37.483Z,2.10
2022-08-04T10:43:40.212Z,2.33
2022-08-04T10:45:04.145Z,2.20
2022-08-04T10:46:18.782Z,2.10
2022-08-04T10:47:20.947Z,2.25
2022-08-04T10:48:40.554Z,1.88
2022-08-04T10:49:44.944Z,2.20
2022-08-04T10:50:57.117Z,2.10
2022-08-04T10:52:07.564Z,2.00
2022-08-04T10:53:12.091Z,2.35
2022-08-04T10:54:33.344Z,2.10
2022-08-04T10:56:06.246Z,2.00
2022-08-04T10:57:03.783Z,2.30
2022-08-04T10:58:04.665Z,2.30
2022-08-04T10:59:07.093Z,1.90
2022-08-04T11:01:12.128Z,2.33
2022-08-04T11:02:44.094Z,1.95
2022-08-04T11:03:58.709Z,2.30
2022-08-04T11:05:11.094Z,2.03
2022-08-04T11:06:09.760Z,2.42
2022-08-04T11:07:08.688Z,2.25
2022-08-04T11:08:14.361Z,2.20
2022-08-04T11:09:15.173Z,2.25
2022-08-04T11:10:14.295Z,2.28
2022-08-04T11:11:26.861Z,1.95
2022-08-04T11:12:26.328Z,1.95
2022-08-04T11:13:30.283Z,2.13
2022-08-04T11:14:42.095Z,1.98
2022-08-04T11:15:45.096Z,2.15
2022-08-04T11:16:54.877Z,2.25
2022-08-04T11:18:35.715Z,2.00
2022-08-04T11:19:44.858Z,2.10
2022-08-04T11:21:03.124Z,2.08
2022-08-04T11:22:06.468Z,2.22
2022-08-04T11:23:14.237Z,2.28
2022-08-04T11:24:34.458Z,2.08
2022-08-04T11:25:52.147Z,2.08
2022-08-04T11:27:00.323Z,1.73
2022-08-04T11:28:09.578Z,1.58
2022-08-04T11:29:33.513Z,2.15
2022-08-04T11:30:41.797Z,1.90
2022-08-04T11:31:49.815Z,2.25
2022-08-04T11:33:04.856Z,2.20
2022-08-04T11:34:23.722Z,1.80
2022-08-04T11:35:34.726Z,1.90
2022-08-04T11:36:37.189Z,2.20
2022-08-04T11:39:03.375Z,1.73
2022-08-04T11:40:16.096Z,1.80
2022-08-04T11:41:19.700Z,2.08
2022-08-04T11:42:21.916Z,1.90
2022-08-04T11:44:00.800Z,1.90
2022-08-04T11:45:11.246Z,2.00
2022-08-04T11:46:13.150Z,1.98
2022-08-04T11:47:34.675Z,2.03
2022-08-04T11:48:45.228Z,1.83
2022-08-04T11:49:56.766Z,1.95
2022-08-04T11:50:56.556Z,2.35
2022-08-04T11:51:56.008Z,1.90
2022-08-04T11:52:55.715Z,2.10
2022-08-04T11:53:52.407Z,2.08
2022-08-04T11:54:52.476Z,2.10
2022-08-04T11:56:07.909Z,1.88
2022-08-04T11:57:06.632Z,1.90
2022-08-04T11:58:03.803Z,2.28
2022-08-04T11:59:02.630Z,2.28
2022-08-04T12:00:06.349Z,2.10
2022-08-04T12:01:21.754Z,1.80
2022-08-04T12:02:41.859Z,2.00
2022-08-04T12:04:03.529Z,1.83
2022-08-04T12:05:03.332Z,1.90
2022-08-04T12:06:18.204Z,2.08
2022-08-04T12:07:31.351Z,2.00
2022-08-04T12:08:54.543Z,1.90
2022-08-04T12:10:41.109Z,2.07
2022-08-04T12:12:06.903Z,1.70
2022-08-04T12:13:13.628Z,1.83
2022-08-04T12:14:24.633Z,1.88
2022-08-04T12:15:27.822Z,1.98
2022-08-04T12:17:01.961Z,1.70
2022-08-04T12:19:43.063Z,1.67
2022-08-04T12:21:00.867Z,2.00
2022-08-04T12:22:03.510Z,1.90
2022-08-04T12:23:01.317Z,1.95
2022-08-04T12:24:08.595Z,1.77
2022-08-04T12:25:11.951Z,2.08
2022-08-04T12:26:17.347Z,1.90
2022-08-04T12:27:37.572Z,1.83
2022-08-04T12:29:06.783Z,1.90
2022-08-04T12:30:54.218Z,1.70
2022-08-04T12:31:25.374Z,2.00
2022-08-04T12:32:33.038Z,1.85
2022-08-04T12:34:05.217Z,1.80
2022-08-04T12:35:12.537Z,1.80
2022-08-04T12:36:24.984Z,1.90
2022-08-04T12:37:42.655Z,1.77
2022-08-04T12:38:49.016Z,2.10
2022-08-04T12:40:28.095Z,2.10
2022-08-04T12:41:06.852Z,1.80
2022-08-04T12:42:29.911Z,1.90
2022-08-04T12:43:35.129Z,2.17
2022-08-04T12:44:37.828Z,1.83
2022-08-04T12:45:35.943Z,2.03
2022-08-04T12:46:33.738Z,1.98
2022-08-04T12:47:30.931Z,1.95
2022-08-04T12:48:28.430Z,1.90
2022-08-04T12:49:27.580Z,1.80
2022-08-04T12:50:24.818Z,1.95
2022-08-04T12:52:06.866Z,1.90
2022-08-04T12:53:03.753Z,1.92
2022-08-04T12:54:01.491Z,1.83
2022-08-04T12:54:59.263Z,1.75
2022-08-04T12:56:01.863Z,1.60
2022-08-04T12:57:01.459Z,2.05
2022-08-04T12:57:59.351Z,1.83
2022-08-04T12:59:03.502Z,1.75
2022-08-04T13:00:00.184Z,2.03
2022-08-04T13:02:07.187Z,2.20
2022-08-04T13:02:41.928Z,1.80
2022-08-04T13:03:49.368Z,1.75
2022-08-04T13:04:51.751Z,2.08
2022-08-04T13:05:52.883Z,2.25
2022-08-04T13:07:14.031Z,2.17
2022-08-04T13:08:12.656Z,1.80
2022-08-04T13:09:22.699Z,1.90
2022-08-04T13:10:22.682Z,2.00
2022-08-04T13:11:27.705Z,2.00
2022-08-04T13:12:32.550Z,2.10
2022-08-04T13:13:34.164Z,2.00
2022-08-04T13:14:37.705Z,2.30
2022-08-04T13:15:46.638Z,2.50
2022-08-04T13:16:46.435Z,1.73
2022-08-04T13:18:00.017Z,1.90
2022-08-04T13:18:58.501Z,2.10
2022-08-04T13:20:02.518Z,2.10
2022-08-04T13:21:49.909Z,2.10
2022-08-04T13:22:46.872Z,2.25
2022-08-04T13:24:10.808Z,2.22
2022-08-04T13:26:41.332Z,2.03
2022-08-04T13:26:42.427Z,1.95
2022-08-04T13:27:43.507Z,2.00
2022-08-04T13:28:48.306Z,1.83
2022-08-04T13:29:59.695Z,2.10
2022-08-04T13:31:02.688Z,1.80
2022-08-04T13:32:00.316Z,2.00
2022-08-04T13:33:01.042Z,2.13
2022-08-04T13:34:07.932Z,2.30
2022-08-04T13:35:15.941Z,2.13
2022-08-04T13:36:13.066Z,2.10
2022-08-04T13:37:11.577Z,1.80
2022-08-04T13:38:19.147Z,1.90
2022-08-04T13:39:19.140Z,2.13
2022-08-04T13:40:16.476Z,1.90
2022-08-04T13:41:13.611Z,1.92
2022-08-04T13:42:13.269Z,1.92
2022-08-04T13:43:48.434Z,1.98
2022-08-04T13:44:47.163Z,1.85
2022-08-04T13:45:45.034Z,2.00
2022-08-04T13:46:50.766Z,2.03
2022-08-04T13:47:49.986Z,1.90
2022-08-04T13:49:08.751Z,2.10
2022-08-04T13:50:16.457Z,2.08
2022-08-04T13:51:18.207Z,1.83
2022-08-04T13:52:15.587Z,2.00
2022-08-04T13:53:12.788Z,2.15
2022-08-04T13:54:09.525Z,2.05
2022-08-04T13:55:07.320Z,1.98
2022-08-04T13:56:07.446Z,1.85
2022-08-04T13:57:11.230Z,1.88
2022-08-04T13:58:19.003Z,1.90
2022-08-04T13:59:18.802Z,1.73
2022-08-04T14:00:17.063Z,1.90
2022-08-04T14:01:35.267Z,1.90
2022-08-04T14:02:43.370Z,1.67
2022-08-04T14:03:54.027Z,1.90
2022-08-04T14:04:57.362Z,2.08
2022-08-04T14:06:10.709Z,1.90
2022-08-04T14:07:26.672Z,1.90
2022-08-04T14:08:29.053Z,1.80
2022-08-04T14:09:35.153Z,1.80
2022-08-04T14:10:33.762Z,1.88
2022-08-04T14:12:09.176Z,1.70
2022-08-04T14:13:04.555Z,1.63
2022-08-04T14:14:13.018Z,1.70
2022-08-04T14:16:01.625Z,1.98
2022-08-04T14:17:07.856Z,2.33
2022-08-04T14:18:24.307Z,2.08
2022-08-04T14:19:21.028Z,2.42
2022-08-04T14:20:18.954Z,1.80
2022-08-04T14:21:17.656Z,1.60
2022-08-04T14:22:26.316Z,1.90
2022-08-04T14:23:22.981Z,2.03
2022-08-04T14:24:29.176Z,2.00
2022-08-04T14:25:35.400Z,1.70
2022-08-04T14:26:34.813Z,1.98
2022-08-04T14:27:43.289Z,2.17
2022-08-04T14:29:09.830Z,2.10
2022-08-04T14:29:56.791Z,2.55
2022-08-04T14:31:10.885Z,2.08
2022-08-04T14:32:12.811Z,1.92
2022-08-04T14:34:01.349Z,2.42
2022-08-04T14:34:30.178Z,1.85
2022-08-04T14:35:45.531Z,1.90
2022-08-04T14:37:13.165Z,2.10
2022-08-04T14:38:04.526Z,2.15
2022-08-04T14:39:01.294Z,2.10
2022-08-04T14:40:17.212Z,2.15
2022-08-04T14:41:16.015Z,2.15
2022-08-04T14:42:14.193Z,2.10
2022-08-04T14:43:11.071Z,2.03
2022-08-04T14:44:08.456Z,2.00
2022-08-04T14:45:05.582Z,2.35
2022-08-04T14:46:05.831Z,2.25
2022-08-04T14:47:02.547Z,2.20
2022-08-04T14:48:01.135Z,2.03
2022-08-04T14:49:10.500Z,2.35
2022-08-04T14:50:09.380Z,1.83
2022-08-04T14:51:15.101Z,2.15
2022-08-04T14:52:24.222Z,2.42
2022-08-04T14:53:26.344Z,2.40
2022-08-04T14:54:41.001Z,2.10
2022-08-04T14:55:39.656Z,2.10
2022-08-04T14:56:46.787Z,2.15
2022-08-04T14:58:35.571Z,2.17
2022-08-04T14:59:18.771Z,2.10
2022-08-04T15:00:26.590Z,2.22
2022-08-04T15:01:43.285Z,1.80
2022-08-04T15:02:42.715Z,2.38
2022-08-04T15:03:49.709Z,2.00
2022-08-04T15:04:49.698Z,2.25
2022-08-04T15:05:55.517Z,2.03
2022-08-04T15:07:04.536Z,2.10
2022-08-04T15:08:01.776Z,2.15
2022-08-04T15:09:07.097Z,2.08
2022-08-04T15:10:04.158Z,2.25
2022-08-04T15:11:03.243Z,2.10
2022-08-04T15:12:00.764Z,2.50
2022-08-04T15:12:58.357Z,2.40
2022-08-04T15:13:57.082Z,2.38
2022-08-04T15:14:53.803Z,2.30
2022-08-04T15:16:08.045Z,1.88
2022-08-04T15:17:12.128Z,2.05
2022-08-04T15:18:23.801Z,1.92
2022-08-04T15:19:20.445Z,1.90
2022-08-04T15:20:17.706Z,1.88
2022-08-04T15:21:15.955Z,2.20
2022-08-04T15:22:17.687Z,1.80
2022-08-04T15:23:14.743Z,2.08
2022-08-04T15:24:12.353Z,2.05
2022-08-04T15:25:09.599Z,2.08